aviador You're here:

KCDC Decoded Metar

CEDAR CITY in UT, USA
Report Time2018-02-25 22:53:00
UTC Time2018-02-25 23:45:18
Flight Rules vfr VFR
WindCalm
Visibility9999 m
Phenomena:N/A
Clouds:N/A
Expected CloudBase > 5,600 ft AGL from Temp-Dew spread
CeilingNone
Temp01°C (ISA -3)
Dew Point-13°C (35% RH)
AAT-2.2°C
QNH1020 hPa
Density Alt5,089 ft
Elevation5,623 ft
Report Wrong Elevation
Raw Report
METAR KCDC 252253Z AUTO 00000KT 10SM CLR 01/M13 A3013 RMK AO2 SLP223
T00111133 $=

Extra information for KCDC:More info

Metar Taf Metar & Taf Last 4 Metars F.Rules Stats Wind Profile Meteogram Temp Stats Airport Information Weather charts Add Link Nearby VenuesMetar ALERT Operation Metar Decoded Social comments

AIRNAV info for KCDC